Station Historical Data
Daily Summary for April 9, 2017 Units:  Metric    English   Both
« Previous Day
Next Day »
Daily Weekly Monthly Yearly Custom
  High: Low: Average:
Temperature: 21.8 °C -0.3 °C 12.4 °C
Dew Point: 3.4 °C -4.4 °C -0.2 °C
Humidity: 78% 25% 47%
Wind Speed: 17.7km/h 0km/h 4.7km/h
Wind Gust: 29km/h - -
Wind- - SSW
Pressure: 1018.8 hPa 1013.4 hPa -
Precipitation: 0 mm    
Historical Graphs
 
 
Tabular Data for April 9, 2017
Time Temperature Dew Point Pressure Wind Wind Speed Wind Gust Humidity Rainfall Rate (Hourly)
00:04 3.1 °C -0.6 °C 1017.5 hPa SW 3.2 km/h 6.4 km/h 77% 0 mm
00:09 3.1 °C -0.6 °C 1017.5 hPa SW 3.2 km/h 6.4 km/h 77% 0 mm
00:14 2.9 °C -0.7 °C 1017.5 hPa SSW 1.6 km/h 4.8 km/h 77% 0 mm
00:19 2.9 °C -0.6 °C 1017.5 hPa SW 3.2 km/h 6.4 km/h 78% 0 mm
00:24 2.9 °C -0.7 °C 1017.5 hPa SSW 3.2 km/h 6.4 km/h 77% 0 mm
00:29 2.8 °C -0.6 °C 1017.5 hPa SSW 3.2 km/h 8 km/h 78% 0 mm
00:34 2.8 °C -0.6 °C 1017.5 hPa SW 3.2 km/h 9.7 km/h 78% 0 mm
00:39 2.8 °C -0.7 °C 1017.5 hPa SW 3.2 km/h 9.7 km/h 78% 0 mm
00:44 2.8 °C -0.7 °C 1017.5 hPa SW 1.6 km/h 4.8 km/h 78% 0 mm
00:49 2.8 °C -0.7 °C 1017.5 hPa SW 1.6 km/h 6.4 km/h 78% 0 mm
00:54 2.7 °C -0.7 °C 1017.5 hPa SW 6.4 km/h 8 km/h 78% 0 mm
00:59 2.8 °C -0.7 °C 1017.5 hPa SW 1.6 km/h 6.4 km/h 78% 0 mm
01:04 2.8 °C -0.8 °C 1017.2 hPa SW 1.6 km/h 6.4 km/h 77% 0 mm
01:09 2.8 °C -1 °C 1017.2 hPa SW 3.2 km/h 6.4 km/h 76% 0 mm
01:14 2.8 °C -1.1 °C 1017.2 hPa SW 1.6 km/h 4.8 km/h 76% 0 mm
01:19 2.7 °C -1.3 °C 1017.2 hPa WSW 1.6 km/h 4.8 km/h 75% 0 mm
01:24 2.7 °C -1.3 °C 1017.2 hPa SW 1.6 km/h 4.8 km/h 75% 0 mm
01:29 2.6 °C -1.6 °C 1017.2 hPa Calm   4.8 km/h 74% 0 mm
01:34 2.4 °C -1.8 °C 1017.2 hPa SW 1.6 km/h 4.8 km/h 74% 0 mm
01:39 2.3 °C -1.8 °C 1017.2 hPa Calm   4.8 km/h 74% 0 mm
01:44 2.3 °C -1.9 °C 1017.2 hPa Calm   1.6 km/h 74% 0 mm
01:49 2.2 °C -2 °C 1017.2 hPa Calm   3.2 km/h 74% 0 mm
01:54 1.9 °C -2.2 °C 1017.2 hPa Calm   1.6 km/h 74% 0 mm
01:59 1.8 °C -2.4 °C 1017.2 hPa Calm   1.6 km/h 74% 0 mm
02:04 1.6 °C -2.3 °C 1017.2 hPa Calm     75% 0 mm
02:09 1.5 °C -2.3 °C 1017.2 hPa Calm     76% 0 mm
02:14 1.4 °C -2.3 °C 1017.2 hPa Calm   3.2 km/h 76% 0 mm
02:19 1.4 °C -2.7 °C 1017.2 hPa South 1.6 km/h 4.8 km/h 74% 0 mm
02:24 1.6 °C -3.1 °C 1017.2 hPa South 1.6 km/h 4.8 km/h 71% 0 mm
02:29 1.8 °C -3.5 °C 1017.2 hPa Calm   3.2 km/h 68% 0 mm
02:34 1.8 °C -3.7 °C 1017.2 hPa Calm   3.2 km/h 67% 0 mm
02:39 1.8 °C -3.8 °C 1017.2 hPa Calm     66% 0 mm
02:44 1.9 °C -4 °C 1017.2 hPa Calm     65% 0 mm
02:49 1.9 °C -4.2 °C 1017.2 hPa Calm     64% 0 mm
02:54 1.7 °C -4 °C 1017.2 hPa Calm     66% 0 mm
02:59 1.4 °C -4.3 °C 1017.2 hPa Calm     66% 0 mm
03:04 1.2 °C -4.3 °C 1017.2 hPa Calm     67% 0 mm
03:09 1 °C -4.2 °C 1017.2 hPa Calm     68% 0 mm
03:14 1.1 °C -4.2 °C 1017.2 hPa Calm     68% 0 mm
03:19 1.3 °C -3.9 °C 1017.2 hPa Calm     68% 0 mm
03:24 1.2 °C -4.2 °C 1017.2 hPa Calm     67% 0 mm
03:29 0.8 °C -4 °C 1017.2 hPa Calm     70% 0 mm
03:34 0.7 °C -4.1 °C 1017.2 hPa Calm     70% 0 mm
03:39 0.6 °C -4.1 °C 1017.2 hPa Calm     71% 0 mm
03:44 0.6 °C -4.1 °C 1017.2 hPa Calm     71% 0 mm
03:49 0.6 °C -4.1 °C 1017.2 hPa Calm     71% 0 mm
03:54 0.6 °C -4.1 °C 1017.5 hPa Calm     71% 0 mm
03:59 0.5 °C -3.9 °C 1017.5 hPa Calm     72% 0 mm
04:04 0.4 °C -4.2 °C 1017.5 hPa Calm     71% 0 mm
04:09 0.2 °C -4.2 °C 1017.5 hPa Calm     72% 0 mm
04:14 0.1 °C -4.3 °C 1017.5 hPa Calm     72% 0 mm
04:19 0 °C -4.3 °C 1017.5 hPa Calm     73% 0 mm
04:24 -0.1 °C -4.2 °C 1017.5 hPa Calm     74% 0 mm
04:29 -0.1 °C -4.4 °C 1017.5 hPa Calm     73% 0 mm
04:34 -0.2 °C -4.3 °C 1017.8 hPa Calm     74% 0 mm
04:39 0 °C -4.1 °C 1017.8 hPa Calm     74% 0 mm
04:44 0.2 °C -3.9 °C 1017.8 hPa Calm   1.6 km/h 74% 0 mm
04:49 0.2 °C -4.1 °C 1017.8 hPa Calm   3.2 km/h 73% 0 mm
04:54 0.2 °C -4.1 °C 1018.2 hPa Calm   3.2 km/h 73% 0 mm
04:59 0.1 °C -4.2 °C 1018.2 hPa Calm     73% 0 mm
05:04 -0.2 °C -4.2 °C 1018.2 hPa Calm     74% 0 mm
05:09 -0.3 °C -4.4 °C 1018.2 hPa Calm     74% 0 mm
05:14 -0.3 °C -4.2 °C 1018.2 hPa Calm     75% 0 mm
05:19 -0.2 °C -4.1 °C 1018.2 hPa Calm     75% 0 mm
05:24 -0.3 °C -4.2 °C 1018.2 hPa Calm     75% 0 mm
05:29 -0.1 °C -3.9 °C 1018.2 hPa Calm     75% 0 mm
05:34 0.1 °C -4.1 °C 1018.2 hPa Calm     74% 0 mm
05:39 -0.1 °C -4.1 °C 1018.2 hPa Calm     74% 0 mm
05:44 -0.2 °C -4.1 °C 1018.2 hPa Calm     75% 0 mm
05:49 -0.3 °C -4.2 °C 1018.2 hPa Calm     75% 0 mm
05:54 -0.2 °C -4.1 °C 1017.8 hPa Calm     75% 0 mm
05:59 -0.1 °C -3.9 °C 1017.8 hPa Calm     75% 0 mm
06:04 0 °C -4.1 °C 1017.8 hPa Calm     74% 0 mm
06:09 -0.1 °C -4.2 °C 1018.2 hPa Calm     74% 0 mm
06:14 -0.2 °C -4.1 °C 1018.2 hPa Calm     75% 0 mm
06:19 -0.2 °C -4.1 °C 1018.2 hPa Calm     75% 0 mm
06:24 -0.2 °C -4.2 °C 1018.2 hPa Calm     74% 0 mm
06:29 0.1 °C -4.1 °C 1018.2 hPa Calm     74% 0 mm
06:34 0.1 °C -4.1 °C 1018.2 hPa Calm     74% 0 mm
06:39 0.2 °C -4.1 °C 1018.2 hPa Calm     73% 0 mm
06:44 0.4 °C -3.9 °C 1018.2 hPa Calm     73% 0 mm
06:49 0.2 °C -4.1 °C 1018.2 hPa Calm     73% 0 mm
06:54 0.1 °C -4.1 °C 1018.2 hPa Calm     74% 0 mm
06:59 0.1 °C -4.1 °C 1018.2 hPa Calm     74% 0 mm
07:04 0.1 °C -4.2 °C 1018.2 hPa Calm     73% 0 mm
07:09 0.2 °C -4.1 °C 1018.2 hPa Calm     73% 0 mm
07:14 0.4 °C -3.8 °C 1018.2 hPa Calm     73% 0 mm
07:19 0.6 °C -3.9 °C 1018.2 hPa Calm     72% 0 mm
07:24 0.8 °C -3.3 °C 1018.5 hPa Calm     74% 0 mm
07:29 0.9 °C -3.2 °C 1018.5 hPa Calm     74% 0 mm
07:34 1.3 °C -3 °C 1018.5 hPa Calm     73% 0 mm
07:39 1.9 °C -2.6 °C 1018.5 hPa Calm     72% 0 mm
07:44 2.6 °C -2.4 °C 1018.5 hPa Calm     70% 0 mm
07:49 3.4 °C -2.2 °C 1018.5 hPa Calm     67% 0 mm
07:54 3.9 °C -2.1 °C 1018.5 hPa Calm     65% 0 mm
07:59 4.5 °C -1.9 °C 1018.5 hPa Calm     63% 0 mm
08:04 5 °C -1.9 °C 1018.8 hPa Calm     61% 0 mm
08:09 5.6 °C -1.6 °C 1018.8 hPa Calm     60% 0 mm
08:14 6.2 °C -1.5 °C 1018.5 hPa Calm     58% 0 mm
08:19 6.7 °C -1.4 °C 1018.5 hPa SSE 4.8 km/h 6.4 km/h 56% 0 mm
08:24 7.2 °C -1.2 °C 1018.5 hPa South 1.6 km/h 6.4 km/h 55% 0 mm
08:29 7.8 °C -1.2 °C 1018.5 hPa SSE 4.8 km/h 6.4 km/h 53% 0 mm
08:34 8.3 °C -0.5 °C 1018.5 hPa SSW 1.6 km/h 4.8 km/h 54% 0 mm
08:39 8.8 °C -0.6 °C 1018.5 hPa SE 3.2 km/h 8 km/h 52% 0 mm
08:44 9.1 °C -0.3 °C 1018.5 hPa South 3.2 km/h 8 km/h 52% 0 mm
08:49 9.9 °C 0.2 °C 1018.5 hPa SW 6.4 km/h 9.7 km/h 51% 0 mm
08:54 10.5 °C -0.3 °C 1018.5 hPa SSW 4.8 km/h 11.3 km/h 47% 0 mm
08:59 10.9 °C -0.9 °C 1018.5 hPa SSW 6.4 km/h 11.3 km/h 44% 0 mm
09:04 11.3 °C -0.6 °C 1018.5 hPa SSW 6.4 km/h 14.5 km/h 44% 0 mm
09:09 11.6 °C -0.3 °C 1018.5 hPa SSW 4.8 km/h 14.5 km/h 44% 0 mm
09:14 11.7 °C -0.2 °C 1018.5 hPa SSW 6.4 km/h 12.9 km/h 44% 0 mm
09:19 12 °C -0.6 °C 1018.5 hPa South 11.3 km/h 19.3 km/h 42% 0 mm
09:24 12.3 °C -0.3 °C 1018.5 hPa WSW 8 km/h 11.3 km/h 42% 0 mm
09:29 12.7 °C -0.3 °C 1018.2 hPa SSW 6.4 km/h 12.9 km/h 41% 0 mm
09:34 13 °C 0.4 °C 1018.5 hPa SSW 6.4 km/h 12.9 km/h 42% 0 mm
09:39 13.2 °C -0.5 °C 1018.5 hPa SSE 3.2 km/h 11.3 km/h 39% 0 mm
09:44 13.6 °C 0.2 °C 1018.5 hPa SW 1.6 km/h 12.9 km/h 40% 0 mm
09:49 13.9 °C 0.5 °C 1018.5 hPa SW 12.9 km/h 12.9 km/h 40% 0 mm
09:54 14.2 °C 0.1 °C 1018.2 hPa South 8 km/h 17.7 km/h 38% 0 mm
09:59 14.3 °C -0.6 °C 1018.2 hPa SSW 8 km/h 19.3 km/h 36% 0 mm
10:04 14.5 °C 1.1 °C 1018.2 hPa SSW 8 km/h 19.3 km/h 40% 0 mm
10:09 14.8 °C 0.2 °C 1018.2 hPa SSW 8 km/h 17.7 km/h 37% 0 mm
10:14 14.9 °C 0 °C 1018.2 hPa SSW 8 km/h 19.3 km/h 36% 0 mm
10:19 15.2 °C -0.2 °C 1018.2 hPa SSW 9.7 km/h 19.3 km/h 35% 0 mm
10:24 15.3 °C -0.1 °C 1018.2 hPa South 9.7 km/h 19.3 km/h 35% 0 mm
10:29 15.6 °C -0.3 °C 1018.5 hPa WSW 11.3 km/h 17.7 km/h 34% 0 mm
10:34 15.6 °C -0.2 °C 1018.2 hPa SSW 11.3 km/h 22.5 km/h 34% 0 mm
10:39 15.8 °C -0.4 °C 1018.2 hPa SSW 11.3 km/h 25.7 km/h 33% 0 mm
10:44 16.1 °C 0.6 °C 1018.5 hPa SSW 11.3 km/h 25.7 km/h 35% 0 mm
10:49 16.3 °C -0.4 °C 1018.5 hPa SW 9.7 km/h 17.7 km/h 32% 0 mm
10:54 16.3 °C -0.9 °C 1018.2 hPa WSW 9.7 km/h 22.5 km/h 31% 0 mm
10:59 16.6 °C -0.2 °C 1018.2 hPa SW 9.7 km/h 22.5 km/h 32% 0 mm
11:04 16.7 °C 0.3 °C 1018.2 hPa SSW 9.7 km/h 20.9 km/h 33% 0 mm
11:09 16.9 °C 0.5 °C 1018.2 hPa SSW 9.7 km/h 24.1 km/h 33% 0 mm
11:14 16.9 °C 0.6 °C 1018.2 hPa SSW 11.3 km/h 25.7 km/h 33% 0 mm
11:19 17.1 °C -0.7 °C 1017.8 hPa SW 6.4 km/h 29 km/h 30% 0 mm
11:24 17.4 °C 0.5 °C 1017.8 hPa South 11.3 km/h 19.3 km/h 32% 0 mm
11:29 17.4 °C 0.1 °C 1017.8 hPa SSW 8 km/h 24.1 km/h 31% 0 mm
11:34 17.6 °C -0.2 °C 1017.8 hPa WSW 17.7 km/h 20.9 km/h 30% 0 mm
11:39 17.7 °C 0.3 °C 1017.8 hPa SSW 11.3 km/h 20.9 km/h 31% 0 mm
11:44 17.9 °C 1.4 °C 1017.8 hPa SSW 9.7 km/h 20.9 km/h 33% 0 mm
11:49 17.9 °C 0.1 °C 1017.5 hPa SSW 11.3 km/h 25.7 km/h 30% 0 mm
11:54 17.9 °C 1.4 °C 1017.5 hPa South 11.3 km/h 19.3 km/h 33% 0 mm
11:59 18.2 °C -0.7 °C 1017.8 hPa SW 12.9 km/h 20.9 km/h 28% 0 mm
12:04 18.3 °C 1.3 °C 1017.5 hPa South 8 km/h 22.5 km/h 32% 0 mm
12:09 18.5 °C 0.6 °C 1017.5 hPa SSW 9.7 km/h 22.5 km/h 30% 0 mm
12:14 18.6 °C 2 °C 1017.5 hPa SW 11.3 km/h 20.9 km/h 33% 0 mm
12:19 19 °C 2.3 °C 1017.5 hPa SW 9.7 km/h 20.9 km/h 33% 0 mm
12:24 19.1 °C 0.7 °C 1017.2 hPa SW 8 km/h 25.7 km/h 29% 0 mm
12:29 19.1 °C 1.6 °C 1017.2 hPa NW 8 km/h 17.7 km/h 31% 0 mm
12:34 19.3 °C 0.8 °C 1017.5 hPa SSW 9.7 km/h 17.7 km/h 29% 0 mm
12:39 19.4 °C 0.9 °C 1017.5 hPa SSW 9.7 km/h 20.9 km/h 29% 0 mm
12:44 19.5 °C 0.5 °C 1017.5 hPa SW 9.7 km/h 24.1 km/h 28% 0 mm
12:49 19.4 °C 0.4 °C 1017.2 hPa SW 9.7 km/h 24.1 km/h 28% 0 mm
12:54 19.4 °C 0.4 °C 1017.2 hPa SW 11.3 km/h 24.1 km/h 28% 0 mm
12:59 19.4 °C 0.4 °C 1017.2 hPa SSW 11.3 km/h 20.9 km/h 28% 0 mm
13:04 19.6 °C 1 °C 1017.2 hPa SSW 11.3 km/h 20.9 km/h 29% 0 mm
13:09 19.7 °C 0.6 °C 1017.2 hPa SW 8 km/h 20.9 km/h 28% 0 mm
13:14 19.9 °C 0.3 °C 1017.2 hPa WSW 12.9 km/h 22.5 km/h 27% 0 mm
13:19 20.1 °C 0.4 °C 1016.8 hPa South 16.1 km/h 22.5 km/h 27% 0 mm
13:24 20.1 °C 0.9 °C 1016.8 hPa South 12.9 km/h 20.9 km/h 28% 0 mm
13:29 20.2 °C 0.1 °C 1016.8 hPa South 9.7 km/h 22.5 km/h 26% 0 mm
13:34 20.2 °C 0.6 °C 1016.8 hPa WSW 14.5 km/h 22.5 km/h 27% 0 mm
13:39 20.3 °C 0.1 °C 1016.8 hPa WSW 11.3 km/h 22.5 km/h 26% 0 mm
13:44 20.3 °C 0.1 °C 1016.8 hPa WSW 11.3 km/h 22.5 km/h 26% 0 mm
13:49 20.4 °C 0.7 °C 1016.8 hPa WSW 11.3 km/h 22.5 km/h 27% 0 mm
13:54 20.2 °C 0.1 °C 1016.8 hPa WSW 12.9 km/h 27.4 km/h 26% 0 mm
13:59 20.2 °C 0.6 °C 1016.8 hPa WSW 12.9 km/h 27.4 km/h 27% 0 mm
14:04 20.2 °C 0.6 °C 1016.5 hPa South 12.9 km/h 22.5 km/h 27% 0 mm
14:09 20.3 °C 2.1 °C 1016.5 hPa SW 11.3 km/h 24.1 km/h 30% 0 mm
14:14 20.3 °C 1.2 °C 1016.5 hPa SW 9.7 km/h 24.1 km/h 28% 0 mm
14:19 20.3 °C 2.6 °C 1016.8 hPa SW 8 km/h 24.1 km/h 31% 0 mm
14:24 20.4 °C 1.3 °C 1016.5 hPa West 12.9 km/h 19.3 km/h 28% 0 mm
14:29 20.4 °C 1.3 °C 1016.5 hPa South 11.3 km/h 22.5 km/h 28% 0 mm
14:34 20.4 °C 1.7 °C 1016.5 hPa SW 11.3 km/h 17.7 km/h 29% 0 mm
14:39 20.6 °C 1.4 °C 1016.5 hPa West 14.5 km/h 19.3 km/h 28% 0 mm
14:44 20.7 °C 3.4 °C 1016.5 hPa SW 9.7 km/h 22.5 km/h 32% 0 mm
14:49 20.9 °C 3.2 °C 1016.5 hPa SW 8 km/h 22.5 km/h 31% 0 mm
14:54 21.2 °C 2.9 °C 1016.1 hPa WSW 8 km/h 16.1 km/h 30% 0 mm
14:59 21.2 °C 1.9 °C 1016.1 hPa WSW 9.7 km/h 22.5 km/h 28% 0 mm
15:04 21.3 °C 1.5 °C 1016.1 hPa SW 9.7 km/h 22.5 km/h 27% 0 mm
15:09 21.3 °C 2.1 °C 1016.1 hPa South 4.8 km/h 12.9 km/h 28% 0 mm
15:14 21.5 °C 3.2 °C 1016.1 hPa SSW 4.8 km/h 12.9 km/h 30% 0 mm
15:19 21.7 °C 2.4 °C 1016.1 hPa SW 6.4 km/h 9.7 km/h 28% 0 mm
15:24 21.8 °C 1.9 °C 1015.8 hPa WSW 9.7 km/h 16.1 km/h 27% 0 mm
15:29 21.8 °C 2 °C 1015.8 hPa WSW 6.4 km/h 17.7 km/h 27% 0 mm
15:34 21.7 °C 1.4 °C 1015.8 hPa WSW 8 km/h 14.5 km/h 26% 0 mm
15:39 21.7 °C 1.3 °C 1015.8 hPa WSW 8 km/h 16.1 km/h 26% 0 mm
15:44 21.6 °C 1.8 °C 1015.8 hPa SW 9.7 km/h 17.7 km/h 27% 0 mm
15:49 21.6 °C 1.2 °C 1015.8 hPa SW 9.7 km/h 17.7 km/h 26% 0 mm
15:54 21.4 °C 0.6 °C 1015.5 hPa SW 9.7 km/h 17.7 km/h 25% 0 mm
15:59 21.2 °C 0.9 °C 1015.5 hPa WSW 9.7 km/h 16.1 km/h 26% 0 mm
16:04 20.9 °C 0.7 °C 1015.5 hPa WSW 8 km/h 16.1 km/h 26% 0 mm
16:09 20.7 °C -0.1 °C 1015.5 hPa SW 6.4 km/h 12.9 km/h 25% 0 mm
16:14 20.5 °C 0.8 °C 1015.5 hPa WSW 8 km/h 11.3 km/h 27% 0 mm
16:19 20.4 °C 0.2 °C 1015.5 hPa WSW 6.4 km/h 12.9 km/h 26% 0 mm
16:24 20.3 °C 0.2 °C 1015.1 hPa West 4.8 km/h 11.3 km/h 26% 0 mm
16:29 20.3 °C 0.7 °C 1015.1 hPa SW 9.7 km/h 12.9 km/h 27% 0 mm
16:34 20.3 °C 0.2 °C 1015.1 hPa SW 6.4 km/h 12.9 km/h 26% 0 mm
16:39 20.3 °C 1.2 °C 1015.1 hPa SW 6.4 km/h 12.9 km/h 28% 0 mm
16:44 20.4 °C 0.2 °C 1015.1 hPa SW 4.8 km/h 9.7 km/h 26% 0 mm
16:49 20.4 °C 0.8 °C 1015.1 hPa SW 4.8 km/h 9.7 km/h 27% 0 mm
16:54 20.5 °C 0.8 °C 1014.8 hPa SW 4.8 km/h 9.7 km/h 27% 0 mm
16:59 20.6 °C 0.9 °C 1014.8 hPa WSW 3.2 km/h 8 km/h 27% 0 mm
17:04 20.7 °C 0.5 °C 1014.8 hPa WSW 3.2 km/h 8 km/h 26% 0 mm
17:09 20.8 °C 0.6 °C 1014.8 hPa SW 3.2 km/h 8 km/h 26% 0 mm
17:14 20.8 °C 0.6 °C 1014.8 hPa SSW 4.8 km/h 8 km/h 26% 0 mm
17:19 20.8 °C 0 °C 1014.8 hPa SSW 4.8 km/h 11.3 km/h 25% 0 mm
17:24 20.9 °C 1.2 °C 1014.8 hPa WSW 3.2 km/h 8 km/h 27% 0 mm
17:29 21.1 °C 1.9 °C 1014.4 hPa SSW 3.2 km/h 8 km/h 28% 0 mm
17:34 21.3 °C 1.5 °C 1014.4 hPa SW 3.2 km/h 9.7 km/h 27% 0 mm
17:39 21.4 °C 2.2 °C 1014.4 hPa SSW 4.8 km/h 9.7 km/h 28% 0 mm
17:44 21.6 °C 1.8 °C 1014.4 hPa South 4.8 km/h 11.3 km/h 27% 0 mm
17:49 21.6 °C 1.8 °C 1014.4 hPa South 4.8 km/h 11.3 km/h 27% 0 mm
17:54 21.7 °C 1.8 °C 1014.4 hPa South 3.2 km/h 6.4 km/h 27% 0 mm
17:59 21.7 °C 1.3 °C 1014.4 hPa SSW 1.6 km/h 6.4 km/h 26% 0 mm
18:04 21.7 °C 1.3 °C 1014.1 hPa South 4.8 km/h 8 km/h 26% 0 mm
18:09 21.6 °C 1.8 °C 1014.1 hPa South 4.8 km/h 8 km/h 27% 0 mm
18:14 21.6 °C 2.3 °C 1014.1 hPa South 3.2 km/h 8 km/h 28% 0 mm
18:19 21.6 °C 2.3 °C 1014.1 hPa South 3.2 km/h 6.4 km/h 28% 0 mm
18:24 21.6 °C 2.3 °C 1014.1 hPa South 3.2 km/h 4.8 km/h 28% 0 mm
18:29 21.5 °C 2.2 °C 1014.1 hPa Calm   4.8 km/h 28% 0 mm
18:34 21.4 °C 2.1 °C 1014.1 hPa Calm     28% 0 mm
18:39 21.3 °C 2.6 °C 1013.8 hPa Calm     29% 0 mm
18:44 21.2 °C 1.9 °C 1014.1 hPa Calm   4.8 km/h 28% 0 mm
18:49 21.1 °C 2.8 °C 1013.8 hPa South 1.6 km/h 6.4 km/h 30% 0 mm
18:54 21.1 °C 2.3 °C 1013.8 hPa Calm   4.8 km/h 29% 0 mm
18:59 20.9 °C 2.7 °C 1013.8 hPa South 1.6 km/h 4.8 km/h 30% 0 mm
19:04 20.8 °C 2.6 °C 1013.8 hPa SSE 1.6 km/h 4.8 km/h 30% 0 mm
19:09 20.6 °C 2.4 °C 1013.8 hPa South 1.6 km/h 6.4 km/h 30% 0 mm
19:14 20.5 °C 2.8 °C 1013.8 hPa South 3.2 km/h 6.4 km/h 31% 0 mm
19:19 20.4 °C 2.7 °C 1013.8 hPa South 3.2 km/h 6.4 km/h 31% 0 mm
19:24 20.3 °C 2.6 °C 1013.8 hPa South 4.8 km/h 14.5 km/h 31% 0 mm
19:29 20.3 °C 3.1 °C 1013.8 hPa SSW 4.8 km/h 14.5 km/h 32% 0 mm
19:34 20.3 °C 3.1 °C 1013.8 hPa SSW 6.4 km/h 11.3 km/h 32% 0 mm
19:39 20.2 °C 2.9 °C 1013.8 hPa SSW 6.4 km/h 11.3 km/h 32% 0 mm
19:44 20.1 °C 2.9 °C 1013.8 hPa SSW 4.8 km/h 11.3 km/h 32% 0 mm
19:49 19.9 °C 2.7 °C 1013.8 hPa South 3.2 km/h 11.3 km/h 32% 0 mm
19:54 19.8 °C 3.1 °C 1013.8 hPa South 3.2 km/h 8 km/h 33% 0 mm
19:59 19.7 °C 2.9 °C 1013.8 hPa SSW 4.8 km/h 8 km/h 33% 0 mm
20:04 19.5 °C 2.8 °C 1013.4 hPa South 1.6 km/h 6.4 km/h 33% 0 mm
20:09 19.3 °C 3 °C 1013.4 hPa South 3.2 km/h 6.4 km/h 34% 0 mm
20:14 19.1 °C 2.9 °C 1013.4 hPa South 3.2 km/h 9.7 km/h 34% 0 mm
20:19 18.9 °C 3.1 °C 1013.4 hPa South 3.2 km/h 9.7 km/h 35% 0 mm
20:24 18.7 °C 2.9 °C 1013.4 hPa South 1.6 km/h 3.2 km/h 35% 0 mm
20:29 18.5 °C 2.7 °C 1013.4 hPa SSE 3.2 km/h 6.4 km/h 35% 0 mm
20:34 18.3 °C 2.9 °C 1013.4 hPa South 3.2 km/h 4.8 km/h 36% 0 mm
20:39 18.1 °C 2.7 °C 1013.4 hPa SSE 3.2 km/h 4.8 km/h 36% 0 mm
20:44 17.9 °C 3 °C 1013.4 hPa South 3.2 km/h 4.8 km/h 37% 0 mm
20:49 17.7 °C 2.8 °C 1013.4 hPa South 3.2 km/h 4.8 km/h 37% 0 mm
20:54 17.6 °C 2.7 °C 1013.4 hPa Calm   4.8 km/h 37% 0 mm
20:59 17.6 °C 3.1 °C 1013.8 hPa Calm     38% 0 mm
21:04 17.4 °C 2.9 °C 1013.8 hPa South 1.6 km/h 1.6 km/h 38% 0 mm
21:09 17.2 °C 3.1 °C 1013.8 hPa SSE 1.6 km/h 4.8 km/h 39% 0 mm
21:14 16.9 °C 2.9 °C 1013.8 hPa South 3.2 km/h 8 km/h 39% 0 mm
21:19 16.8 °C 3.1 °C 1013.8 hPa South 3.2 km/h 8 km/h 40% 0 mm
21:24 16.7 °C 3.1 °C 1013.8 hPa South 3.2 km/h 9.7 km/h 40% 0 mm
21:29 16.7 °C 3 °C 1013.8 hPa SSW 3.2 km/h 8 km/h 40% 0 mm
21:34 16.7 °C 2.6 °C 1013.8 hPa South 3.2 km/h 11.3 km/h 39% 0 mm
21:39 16.8 °C 2.7 °C 1013.8 hPa SSE 3.2 km/h 11.3 km/h 39% 0 mm
21:44 16.9 °C 2.8 °C 1013.8 hPa South 6.4 km/h 11.3 km/h 39% 0 mm
21:49 17.1 °C 2.7 °C 1013.8 hPa South 6.4 km/h 17.7 km/h 38% 0 mm
21:54 17.3 °C 2.4 °C 1013.4 hPa South 6.4 km/h 17.7 km/h 37% 0 mm
21:59 17.4 °C 2.6 °C 1013.4 hPa South 6.4 km/h 16.1 km/h 37% 0 mm
22:04 17.5 °C 2.2 °C 1013.4 hPa SSE 12.9 km/h 14.5 km/h 36% 0 mm
22:09 17.6 °C 2.7 °C 1013.4 hPa SSW 8 km/h 12.9 km/h 37% 0 mm
22:14 17.6 °C 2.3 °C 1013.4 hPa South 6.4 km/h 17.7 km/h 36% 0 mm
22:19 17.7 °C 2.4 °C 1013.4 hPa South 8 km/h 12.9 km/h 36% 0 mm
22:24 17.7 °C 2.4 °C 1013.4 hPa SSW 11.3 km/h 19.3 km/h 36% 0 mm
22:29 17.7 °C 2.4 °C 1013.4 hPa South 6.4 km/h 17.7 km/h 36% 0 mm
22:34 17.7 °C 2 °C 1013.4 hPa SSE 4.8 km/h 17.7 km/h 35% 0 mm
22:39 17.7 °C 2 °C 1013.4 hPa SSW 4.8 km/h 12.9 km/h 35% 0 mm
22:44 17.6 °C 1.9 °C 1013.4 hPa South 8 km/h 16.1 km/h 35% 0 mm
22:49 17.7 °C 2 °C 1013.4 hPa South 8 km/h 16.1 km/h 35% 0 mm
22:54 17.6 °C 1.9 °C 1013.4 hPa South 8 km/h 16.1 km/h 35% 0 mm
22:59 17.6 °C 1.9 °C 1013.4 hPa South 8 km/h 17.7 km/h 35% 0 mm
23:04 17.6 °C 1.9 °C 1013.8 hPa SSW 6.4 km/h 19.3 km/h 35% 0 mm
23:09 17.6 °C 1.9 °C 1013.8 hPa South 3.2 km/h 12.9 km/h 35% 0 mm
23:14 17.6 °C 1.9 °C 1013.8 hPa SSW 6.4 km/h 12.9 km/h 35% 0 mm
23:19 17.4 °C 1.8 °C 1013.8 hPa WSW 4.8 km/h 12.9 km/h 35% 0 mm
23:24 17.4 °C 1.8 °C 1013.8 hPa SSW 4.8 km/h 8 km/h 35% 0 mm
23:29 17.4 °C 1.8 °C 1013.8 hPa South 8 km/h 14.5 km/h 35% 0 mm
23:34 17.4 °C 1.8 °C 1013.8 hPa SSW 3.2 km/h 16.1 km/h 35% 0 mm
23:39 17.3 °C 1.7 °C 1013.8 hPa South 3.2 km/h 9.7 km/h 35% 0 mm
23:44 17.2 °C 1.6 °C 1013.8 hPa SSW 4.8 km/h 11.3 km/h 35% 0 mm
23:49 17.2 °C 1.2 °C 1014.1 hPa SSW 4.8 km/h 12.9 km/h 34% 0 mm
23:54 17.2 °C 1.6 °C 1014.1 hPa SSW 4.8 km/h 12.9 km/h 35% 0 mm
23:59 17.2 °C 1.6 °C 1014.1 hPa South 3.2 km/h 11.3 km/h 35% 0 mm
Buffalo, New York, USA
Compliments of Weather Underground - 2.5 mb